createdAt,value
2023-01-29T00:01:47.124Z,2.73
2023-01-29T00:04:13.735Z,2.97
2023-01-29T00:06:40.337Z,3.60
2023-01-29T00:09:06.990Z,3.90
2023-01-29T00:11:33.563Z,2.70
2023-01-29T00:14:00.156Z,3.60
2023-01-29T00:16:26.706Z,3.17
2023-01-29T00:18:53.281Z,2.97
2023-01-29T00:24:05.655Z,3.37
2023-01-29T00:29:17.903Z,3.30
2023-01-29T00:31:45.113Z,2.30
2023-01-29T00:34:11.827Z,2.27
2023-01-29T00:36:38.411Z,2.73
2023-01-29T00:39:10.805Z,3.70
2023-01-29T00:41:56.353Z,3.10
2023-01-29T00:44:41.427Z,4.20
2023-01-29T00:47:28.062Z,1.93
2023-01-29T00:52:41.056Z,4.07
2023-01-29T00:55:07.988Z,4.40
2023-01-29T00:57:34.904Z,3.40
2023-01-29T01:00:01.812Z,3.20
2023-01-29T01:05:31.308Z,3.23
2023-01-29T01:10:42.307Z,4.40
2023-01-29T01:15:53.092Z,4.47
2023-01-29T01:21:06.492Z,2.37
2023-01-29T01:26:17.206Z,5.20
2023-01-29T01:28:44.107Z,4.53
2023-01-29T01:31:11.138Z,3.90
2023-01-29T01:33:38.007Z,5.70
2023-01-29T01:38:49.258Z,5.97
2023-01-29T02:18:52.093Z,4.13
2023-01-29T02:21:54.948Z,3.93
2023-01-29T02:24:22.488Z,2.50
2023-01-29T02:26:52.045Z,3.97
2023-01-29T02:29:25.275Z,3.70
2023-01-29T02:31:57.158Z,4.83
2023-01-29T02:37:13.976Z,2.57
2023-01-29T02:39:43.419Z,6.70
2023-01-29T02:42:14.793Z,6.20
2023-01-29T02:47:36.159Z,3.87
2023-01-29T02:50:13.310Z,4.53
2023-01-29T02:52:39.982Z,5.23
2023-01-29T02:55:08.770Z,4.43
2023-01-29T03:00:21.870Z,4.40
2023-01-29T03:05:37.159Z,7.00
2023-01-29T03:08:04.813Z,3.23
2023-01-29T03:10:38.151Z,6.47
2023-01-29T03:13:07.951Z,6.80
2023-01-29T03:15:39.073Z,7.53
2023-01-29T03:21:41.956Z,6.23
2023-01-29T03:24:29.810Z,6.27
2023-01-29T03:27:16.525Z,4.87
2023-01-29T03:30:03.259Z,4.53
2023-01-29T03:32:51.355Z,5.17
2023-01-29T03:35:24.585Z,4.10
2023-01-29T03:37:51.148Z,6.40
2023-01-29T03:40:18.273Z,6.00
2023-01-29T03:45:54.806Z,3.33
2023-01-29T03:51:51.855Z,6.67
2023-01-29T03:57:31.404Z,5.07
2023-01-29T04:03:02.596Z,6.97
2023-01-29T04:08:27.068Z,7.47
2023-01-29T04:13:40.083Z,5.97
2023-01-29T04:19:13.915Z,6.30
2023-01-29T04:21:42.461Z,8.10
2023-01-29T04:24:09.132Z,8.47
2023-01-29T04:29:30.233Z,7.03
2023-01-29T04:34:54.790Z,4.63
2023-01-29T04:37:28.502Z,7.73
2023-01-29T04:39:56.689Z,5.10
2023-01-29T04:42:23.240Z,8.23
2023-01-29T04:45:15.948Z,5.53
2023-01-29T04:48:01.358Z,4.30
2023-01-29T04:50:29.347Z,6.67
2023-01-29T04:52:56.578Z,6.33
2023-01-29T04:55:29.050Z,4.80
2023-01-29T04:58:03.048Z,5.97
2023-01-29T05:00:37.061Z,5.43
2023-01-29T05:03:04.066Z,3.37
2023-01-29T05:05:30.654Z,7.80
2023-01-29T05:07:57.305Z,5.27
2023-01-29T05:13:08.831Z,7.37
2023-01-29T05:15:36.869Z,6.60
2023-01-29T05:18:04.293Z,7.57
2023-01-29T05:20:31.666Z,6.67
2023-01-29T05:25:42.061Z,5.03
2023-01-29T05:31:00.653Z,5.93
2023-01-29T05:33:27.975Z,6.20
2023-01-29T05:35:55.320Z,5.73
2023-01-29T05:38:22.118Z,6.13
2023-01-29T05:40:48.755Z,6.10
2023-01-29T05:43:24.753Z,5.53
2023-01-29T05:48:38.901Z,5.80
2023-01-29T05:51:05.583Z,4.10
2023-01-29T05:53:32.226Z,4.80
2023-01-29T05:56:00.841Z,6.50
2023-01-29T06:01:11.472Z,5.87
2023-01-29T06:03:42.312Z,7.07
2023-01-29T06:06:09.220Z,6.90
2023-01-29T06:08:35.818Z,6.63
2023-01-29T06:11:02.497Z,7.53
2023-01-29T06:13:29.084Z,7.97
2023-01-29T06:15:55.741Z,9.10
2023-01-29T06:18:22.341Z,6.33
2023-01-29T06:20:48.882Z,8.57
2023-01-29T06:23:15.423Z,8.40
2023-01-29T06:28:25.840Z,9.53
2023-01-29T06:33:39.125Z,6.90
2023-01-29T06:36:06.171Z,9.17
2023-01-29T06:38:32.861Z,8.40
2023-01-29T06:40:59.560Z,8.37
2023-01-29T06:46:10.170Z,9.20
2023-01-29T06:48:36.925Z,7.17
2023-01-29T06:51:04.225Z,8.30
2023-01-29T06:53:31.100Z,6.70
2023-01-29T06:55:57.882Z,9.43
2023-01-29T06:58:24.450Z,5.07
2023-01-29T07:00:51.406Z,8.37
2023-01-29T07:03:18.068Z,7.17
2023-01-29T07:05:50.379Z,7.60
2023-01-29T07:08:17.123Z,7.43
2023-01-29T07:10:43.745Z,5.47
2023-01-29T07:13:10.584Z,4.57
2023-01-29T07:18:21.898Z,4.60
2023-01-29T07:20:48.638Z,8.50
2023-01-29T07:23:15.467Z,6.03
2023-01-29T07:25:42.118Z,5.87
2023-01-29T07:28:08.796Z,5.60
2023-01-29T07:30:35.551Z,4.17
2023-01-29T07:33:02.951Z,5.27
2023-01-29T07:35:29.712Z,5.90
2023-01-29T07:37:56.587Z,6.13
2023-01-29T07:40:23.154Z,7.03
2023-01-29T07:45:34.670Z,6.90
2023-01-29T07:48:01.362Z,4.97
2023-01-29T07:50:28.052Z,7.20
2023-01-29T07:52:54.867Z,4.73
2023-01-29T07:55:21.581Z,7.33
2023-01-29T07:57:48.433Z,7.20
2023-01-29T08:00:15.624Z,4.63
2023-01-29T08:02:42.850Z,7.17
2023-01-29T08:05:09.509Z,7.67
2023-01-29T08:07:36.163Z,6.13
2023-01-29T08:10:02.889Z,5.97
2023-01-29T08:12:29.823Z,7.07
2023-01-29T08:14:56.776Z,5.43
2023-01-29T08:17:23.386Z,5.13
2023-01-29T08:19:50.011Z,6.30
2023-01-29T08:22:16.712Z,7.73
2023-01-29T08:24:53.861Z,5.90
2023-01-29T08:27:26.814Z,7.23
2023-01-29T08:29:53.450Z,6.80
2023-01-29T08:32:20.186Z,5.87
2023-01-29T08:34:47.074Z,6.27
2023-01-29T08:37:13.771Z,5.23
2023-01-29T08:39:43.423Z,7.33
2023-01-29T08:42:10.106Z,5.90
2023-01-29T08:44:36.743Z,7.73
2023-01-29T08:47:03.527Z,6.63
2023-01-29T08:49:30.115Z,5.67
2023-01-29T08:51:57.219Z,7.53
2023-01-29T08:54:23.939Z,5.87
2023-01-29T08:56:50.723Z,7.23
2023-01-29T08:59:17.544Z,7.90
2023-01-29T09:01:44.123Z,5.10
2023-01-29T09:04:10.713Z,7.47
2023-01-29T09:06:37.465Z,7.73
2023-01-29T09:09:04.517Z,3.57
2023-01-29T09:11:31.249Z,7.17
2023-01-29T09:13:57.892Z,7.80
2023-01-29T09:16:24.619Z,5.90
2023-01-29T09:18:51.267Z,5.67
2023-01-29T09:21:17.944Z,4.23
2023-01-29T09:23:47.084Z,6.60
2023-01-29T09:26:13.994Z,5.23
2023-01-29T09:31:25.023Z,4.93
2023-01-29T09:33:51.910Z,5.60
2023-01-29T09:36:18.537Z,5.13
2023-01-29T09:38:45.196Z,5.20
2023-01-29T09:44:00.598Z,4.37
2023-01-29T09:46:40.981Z,3.83
2023-01-29T09:49:11.733Z,2.57
2023-01-29T09:51:41.858Z,4.50
2023-01-29T09:54:18.854Z,4.80
2023-01-29T09:56:45.917Z,4.60
2023-01-29T09:59:14.843Z,3.07
2023-01-29T10:01:41.571Z,5.23
2023-01-29T10:04:23.433Z,4.80
2023-01-29T10:06:53.752Z,2.97
2023-01-29T10:09:39.316Z,3.87
2023-01-29T10:12:12.152Z,4.77
2023-01-29T10:14:48.630Z,4.30
2023-01-29T10:17:15.369Z,4.87
2023-01-29T10:19:47.961Z,3.90
2023-01-29T10:22:34.280Z,5.47
2023-01-29T10:25:01.861Z,2.83
2023-01-29T10:27:32.557Z,3.50
2023-01-29T10:32:43.818Z,4.80
2023-01-29T10:35:23.860Z,4.40
2023-01-29T10:37:52.227Z,3.87
2023-01-29T10:40:19.348Z,4.33
2023-01-29T10:43:12.684Z,3.23
2023-01-29T10:46:02.074Z,4.13
2023-01-29T10:48:36.639Z,3.13
2023-01-29T10:51:06.173Z,3.17
2023-01-29T10:53:53.155Z,4.30
2023-01-29T10:56:38.800Z,2.50
2023-01-29T10:59:24.008Z,3.30
2023-01-29T11:01:50.802Z,3.37
2023-01-29T11:04:17.933Z,3.87
2023-01-29T11:06:45.108Z,2.60
2023-01-29T11:09:11.940Z,3.57
2023-01-29T11:11:43.012Z,3.33
2023-01-29T11:14:11.202Z,3.63
2023-01-29T11:16:44.928Z,2.87
2023-01-29T11:19:11.700Z,4.20
2023-01-29T11:21:51.490Z,4.03
2023-01-29T11:24:18.883Z,3.40
2023-01-29T11:26:46.444Z,3.47
2023-01-29T11:29:32.772Z,3.90
2023-01-29T11:31:59.674Z,2.70
2023-01-29T11:34:31.181Z,3.33
2023-01-29T11:39:47.276Z,3.70
2023-01-29T11:42:20.948Z,3.90
2023-01-29T11:44:47.605Z,2.63
2023-01-29T11:47:17.276Z,2.47
2023-01-29T11:49:48.506Z,4.00
2023-01-29T11:52:15.865Z,2.93
2023-01-29T11:54:45.667Z,2.73
2023-01-29T11:57:31.191Z,3.83
2023-01-29T12:00:02.544Z,2.47
2023-01-29T12:02:38.605Z,3.33
2023-01-29T12:05:25.732Z,3.63
2023-01-29T12:07:53.811Z,3.50
2023-01-29T12:10:30.127Z,3.20
2023-01-29T12:13:07.388Z,3.50
2023-01-29T12:15:34.204Z,3.53
2023-01-29T12:18:20.318Z,2.03
2023-01-29T12:20:48.614Z,3.47
2023-01-29T12:23:34.188Z,3.90
2023-01-29T12:26:13.302Z,3.97
2023-01-29T12:28:45.360Z,3.67
2023-01-29T12:31:16.744Z,3.63
2023-01-29T12:33:49.589Z,2.67
2023-01-29T12:36:22.062Z,3.73
2023-01-29T12:38:48.772Z,3.53
2023-01-29T12:41:18.293Z,3.80
2023-01-29T12:43:50.984Z,2.60
2023-01-29T12:46:27.979Z,4.23
2023-01-29T12:48:55.477Z,2.60
2023-01-29T12:51:26.552Z,3.00
2023-01-29T12:54:06.181Z,4.20
2023-01-29T12:56:37.131Z,3.13
2023-01-29T12:59:19.211Z,3.63
2023-01-29T13:01:48.501Z,3.03
2023-01-29T13:04:16.751Z,2.47
2023-01-29T13:06:45.448Z,3.23
2023-01-29T13:09:13.266Z,2.40
2023-01-29T13:11:41.181Z,2.80
2023-01-29T13:14:20.218Z,2.97
2023-01-29T13:16:47.997Z,3.70
2023-01-29T13:19:31.800Z,3.27
2023-01-29T13:21:59.778Z,3.73
2023-01-29T13:24:27.640Z,2.93
2023-01-29T13:26:54.269Z,3.10
2023-01-29T13:29:21.056Z,3.57
2023-01-29T13:31:50.349Z,3.77
2023-01-29T13:34:20.312Z,3.40
2023-01-29T13:36:48.111Z,4.20
2023-01-29T13:39:23.040Z,3.90
2023-01-29T13:41:49.929Z,4.20
2023-01-29T13:44:26.964Z,4.50
2023-01-29T13:46:58.051Z,5.37
2023-01-29T13:49:26.120Z,2.30
2023-01-29T13:51:53.081Z,3.77
2023-01-29T13:54:21.319Z,4.70
2023-01-29T13:56:53.989Z,4.33
2023-01-29T13:59:21.340Z,2.60
2023-01-29T14:01:48.121Z,4.80
2023-01-29T14:04:25.608Z,5.00
2023-01-29T14:06:53.075Z,3.67
2023-01-29T14:12:22.576Z,4.03
2023-01-29T14:14:49.392Z,4.20
2023-01-29T14:17:16.513Z,2.50
2023-01-29T14:19:53.299Z,2.57
2023-01-29T14:22:20.721Z,3.93
2023-01-29T14:24:47.405Z,4.93
2023-01-29T14:27:21.155Z,2.43
2023-01-29T14:29:47.900Z,4.53
2023-01-29T14:32:25.179Z,3.87
2023-01-29T14:35:00.058Z,4.33
2023-01-29T14:37:26.776Z,5.17
2023-01-29T14:39:54.432Z,3.57
2023-01-29T14:42:33.672Z,4.23
2023-01-29T14:45:01.372Z,4.00
2023-01-29T14:47:28.126Z,3.40
2023-01-29T14:49:54.877Z,3.97
2023-01-29T14:52:36.366Z,4.57
2023-01-29T14:55:04.137Z,4.10
2023-01-29T14:57:30.688Z,3.63
2023-01-29T14:59:59.589Z,2.77
2023-01-29T15:02:27.752Z,2.63
2023-01-29T15:04:56.034Z,4.73
2023-01-29T15:07:27.659Z,4.20
2023-01-29T15:10:01.318Z,3.07
2023-01-29T15:12:36.564Z,3.57
2023-01-29T15:15:08.435Z,4.93
2023-01-29T15:17:40.826Z,4.80
2023-01-29T15:20:26.045Z,4.53
2023-01-29T15:22:52.820Z,4.77
2023-01-29T15:25:21.660Z,3.97
2023-01-29T15:27:48.687Z,4.57
2023-01-29T15:30:20.994Z,3.20
2023-01-29T15:32:47.849Z,4.10
2023-01-29T15:35:17.976Z,3.67
2023-01-29T15:37:45.288Z,3.40
2023-01-29T15:40:12.711Z,3.77
2023-01-29T15:42:46.811Z,5.40
2023-01-29T15:45:23.890Z,4.53
2023-01-29T15:47:50.683Z,3.33
2023-01-29T15:50:17.420Z,5.27
2023-01-29T15:52:46.043Z,5.40
2023-01-29T15:55:12.882Z,4.80
2023-01-29T15:57:41.296Z,3.97
2023-01-29T16:00:08.889Z,2.73
2023-01-29T16:05:26.823Z,2.90
2023-01-29T16:07:53.988Z,4.27
2023-01-29T16:10:21.446Z,4.03
2023-01-29T16:12:51.593Z,4.77
2023-01-29T16:15:24.267Z,2.17
2023-01-29T16:17:52.016Z,3.03
2023-01-29T16:20:31.375Z,5.27
2023-01-29T16:22:58.538Z,3.90
2023-01-29T16:25:25.169Z,4.17
2023-01-29T16:27:51.877Z,4.67
2023-01-29T16:30:18.693Z,3.40
2023-01-29T16:32:45.421Z,5.03
2023-01-29T16:38:02.782Z,5.30
2023-01-29T16:43:17.691Z,4.83
2023-01-29T16:45:55.606Z,5.77
2023-01-29T16:48:31.239Z,3.53
2023-01-29T16:51:05.370Z,5.13
2023-01-29T16:53:32.267Z,3.60
2023-01-29T16:56:05.895Z,3.57
2023-01-29T16:58:32.773Z,4.53
2023-01-29T17:01:08.053Z,3.17
2023-01-29T17:03:34.929Z,3.17
2023-01-29T17:09:03.558Z,4.27
2023-01-29T17:11:36.962Z,2.83
2023-01-29T17:14:04.219Z,5.40
2023-01-29T17:16:32.058Z,5.37
2023-01-29T17:21:43.989Z,2.27
2023-01-29T17:24:10.731Z,3.70
2023-01-29T17:26:38.848Z,3.07
2023-01-29T17:29:05.453Z,4.10
2023-01-29T17:34:16.686Z,3.00
2023-01-29T17:36:43.544Z,3.57
2023-01-29T17:39:23.443Z,4.43
2023-01-29T17:41:51.297Z,4.63
2023-01-29T17:44:18.151Z,3.40
2023-01-29T17:46:44.901Z,3.83
2023-01-29T17:51:59.074Z,3.17
2023-01-29T17:54:25.858Z,4.67
2023-01-29T17:56:53.439Z,3.20
2023-01-29T17:59:23.476Z,4.27
2023-01-29T18:01:50.787Z,3.60
2023-01-29T18:04:19.341Z,3.33
2023-01-29T18:06:47.112Z,5.90
2023-01-29T18:09:14.471Z,5.63
2023-01-29T18:11:41.748Z,5.53
2023-01-29T18:14:14.473Z,3.40
2023-01-29T18:16:44.845Z,5.90
2023-01-29T18:19:14.912Z,5.77
2023-01-29T18:21:41.735Z,3.83
2023-01-29T18:24:08.512Z,4.00
2023-01-29T18:26:36.025Z,4.93
2023-01-29T18:29:03.279Z,5.97
2023-01-29T18:31:30.495Z,4.77
2023-01-29T18:33:57.274Z,4.13
2023-01-29T18:36:24.118Z,6.43
2023-01-29T18:38:50.940Z,4.57
2023-01-29T18:41:17.997Z,5.37
2023-01-29T18:43:46.149Z,5.10
2023-01-29T18:46:13.145Z,6.73
2023-01-29T18:48:41.740Z,4.83
2023-01-29T18:51:09.380Z,3.57
2023-01-29T18:56:20.440Z,4.53
2023-01-29T18:58:52.302Z,5.97
2023-01-29T19:01:22.140Z,4.47
2023-01-29T19:03:48.865Z,5.20
2023-01-29T19:06:15.522Z,6.93
2023-01-29T19:08:43.177Z,6.47
2023-01-29T19:11:12.658Z,5.03
2023-01-29T19:13:40.547Z,8.33
2023-01-29T19:16:08.260Z,6.33
2023-01-29T19:18:35.203Z,3.67
2023-01-29T19:21:05.560Z,5.93
2023-01-29T19:23:32.218Z,5.13
2023-01-29T19:28:43.644Z,5.83
2023-01-29T19:31:11.113Z,4.03
2023-01-29T19:33:39.040Z,4.30
2023-01-29T19:36:06.034Z,6.20
2023-01-29T19:38:35.073Z,4.00
2023-01-29T19:41:02.918Z,8.47
2023-01-29T19:43:31.048Z,5.17
2023-01-29T19:46:04.195Z,4.70
2023-01-29T19:48:30.895Z,5.93
2023-01-29T19:50:58.262Z,4.43
2023-01-29T19:53:25.365Z,5.23
2023-01-29T19:56:02.213Z,6.00
2023-01-29T20:01:17.417Z,6.10
2023-01-29T20:03:46.655Z,6.20
2023-01-29T20:06:16.656Z,7.33
2023-01-29T20:08:47.837Z,8.70
2023-01-29T20:11:14.767Z,4.77
2023-01-29T20:13:41.455Z,6.83
2023-01-29T20:16:08.807Z,7.50
2023-01-29T20:18:35.639Z,9.47
2023-01-29T20:21:05.976Z,8.40
2023-01-29T20:23:38.241Z,5.53
2023-01-29T20:26:10.117Z,6.53
2023-01-29T20:28:38.369Z,4.30
2023-01-29T20:31:05.671Z,5.30
2023-01-29T20:33:34.680Z,5.17
2023-01-29T20:38:48.275Z,5.67
2023-01-29T20:41:19.422Z,4.70
2023-01-29T20:43:47.455Z,4.47
2023-01-29T20:48:57.200Z,4.80
2023-01-29T20:51:24.196Z,6.50
2023-01-29T20:53:51.059Z,5.87
2023-01-29T20:56:32.024Z,6.17
2023-01-29T20:59:05.014Z,4.97
2023-01-29T21:04:19.690Z,5.97
2023-01-29T21:06:47.111Z,5.70
2023-01-29T21:09:16.168Z,4.93
2023-01-29T21:11:45.113Z,6.47
2023-01-29T21:14:11.878Z,5.87
2023-01-29T21:16:38.813Z,7.90
2023-01-29T21:19:05.758Z,3.53
2023-01-29T21:21:32.593Z,8.60
2023-01-29T21:23:59.323Z,7.17
2023-01-29T21:26:26.096Z,5.93
2023-01-29T21:28:53.123Z,7.30
2023-01-29T21:31:20.505Z,8.10
2023-01-29T21:33:47.567Z,5.90
2023-01-29T21:36:15.461Z,6.20
2023-01-29T21:38:43.079Z,11.33
2023-01-29T21:41:10.877Z,6.93
2023-01-29T21:43:37.740Z,5.60
2023-01-29T21:46:05.247Z,5.00
2023-01-29T21:48:32.120Z,9.17
2023-01-29T21:50:58.850Z,7.87
2023-01-29T21:53:25.654Z,6.53
2023-01-29T21:55:52.303Z,8.03
2023-01-29T21:58:20.883Z,10.53
2023-01-29T22:00:48.951Z,10.57
2023-01-29T22:03:15.738Z,9.13
2023-01-29T22:05:42.421Z,6.70
2023-01-29T22:08:09.710Z,7.90
2023-01-29T22:10:36.656Z,11.47
2023-01-29T22:13:03.430Z,9.20
2023-01-29T22:15:30.078Z,6.63
2023-01-29T22:17:56.717Z,9.50
2023-01-29T22:20:30.111Z,10.03
2023-01-29T22:22:58.422Z,6.37
2023-01-29T22:25:25.271Z,11.37
2023-01-29T22:27:51.978Z,5.57
2023-01-29T22:30:18.923Z,11.23
2023-01-29T22:32:45.684Z,7.90
2023-01-29T22:35:12.312Z,6.67
2023-01-29T22:37:38.976Z,9.00
2023-01-29T22:40:06.069Z,11.67
2023-01-29T22:42:32.850Z,6.47
2023-01-29T22:44:59.549Z,7.30
2023-01-29T22:47:26.206Z,11.80
2023-01-29T22:52:42.508Z,6.90
2023-01-29T22:55:09.672Z,6.70
2023-01-29T22:57:36.521Z,6.37
2023-01-29T23:00:04.973Z,9.50
2023-01-29T23:02:31.590Z,7.17
2023-01-29T23:04:58.302Z,9.10
2023-01-29T23:07:24.951Z,5.97
2023-01-29T23:12:35.672Z,8.17
2023-01-29T23:15:02.303Z,9.93
2023-01-29T23:17:28.925Z,9.17
2023-01-29T23:19:55.493Z,7.00
2023-01-29T23:22:22.088Z,5.77
2023-01-29T23:24:48.734Z,7.03
2023-01-29T23:27:15.366Z,10.13
2023-01-29T23:29:42.857Z,5.90
2023-01-29T23:32:09.582Z,8.63
2023-01-29T23:34:36.251Z,5.47
2023-01-29T23:37:02.948Z,8.67
2023-01-29T23:39:29.543Z,8.47
2023-01-29T23:41:56.148Z,8.60
2023-01-29T23:44:22.767Z,11.13
2023-01-29T23:46:49.408Z,8.97
2023-01-29T23:49:16.301Z,8.73
2023-01-29T23:54:27.242Z,13.67
2023-01-29T23:56:53.841Z,9.60
2023-01-29T23:59:20.597Z,10.13
